createdAt,value
2023-03-28T00:01:12.709Z,1.72
2023-03-28T00:03:40.881Z,1.59
2023-03-28T00:06:11.039Z,1.61
2023-03-28T00:08:40.396Z,1.65
2023-03-28T00:11:10.448Z,1.64
2023-03-28T00:13:38.790Z,1.61
2023-03-28T00:16:12.590Z,1.56
2023-03-28T00:18:41.433Z,1.52
2023-03-28T00:21:20.189Z,1.54
2023-03-28T00:23:51.485Z,1.56
2023-03-28T00:26:20.462Z,1.56
2023-03-28T00:28:48.114Z,1.59
2023-03-28T00:31:17.171Z,1.55
2023-03-28T00:33:47.719Z,1.62
2023-03-28T00:36:18.570Z,1.64
2023-03-28T00:38:46.432Z,1.53
2023-03-28T00:41:16.024Z,1.55
2023-03-28T00:43:45.379Z,1.60
2023-03-28T00:46:21.089Z,1.58
2023-03-28T00:48:52.653Z,1.51
2023-03-28T00:51:24.975Z,1.51
2023-03-28T00:53:53.908Z,1.50
2023-03-28T00:56:25.021Z,1.56
2023-03-28T00:58:53.647Z,1.56
2023-03-28T01:01:22.759Z,1.52
2023-03-28T01:03:56.260Z,1.45
2023-03-28T01:06:25.734Z,1.38
2023-03-28T01:08:54.015Z,1.40
2023-03-28T01:11:22.324Z,1.42
2023-03-28T01:13:53.026Z,1.38
2023-03-28T01:16:23.702Z,1.39
2023-03-28T01:18:52.500Z,1.34
2023-03-28T01:21:48.852Z,1.38
2023-03-28T01:25:00.129Z,1.34
2023-03-28T01:27:35.446Z,1.35
2023-03-28T01:30:37.855Z,1.29
2023-03-28T01:33:39.581Z,1.33
2023-03-28T01:36:38.750Z,1.38
2023-03-28T01:39:14.175Z,1.39
2023-03-28T01:41:52.061Z,1.35
2023-03-28T01:44:29.649Z,1.29
2023-03-28T01:47:02.105Z,1.32
2023-03-28T01:49:35.896Z,1.26
2023-03-28T01:52:15.139Z,1.28
2023-03-28T01:54:49.866Z,1.27
2023-03-28T01:57:24.130Z,1.24
2023-03-28T01:59:58.208Z,1.21
2023-03-28T02:02:31.758Z,1.25
2023-03-28T02:05:01.312Z,1.24
2023-03-28T02:07:33.972Z,1.28
2023-03-28T02:10:05.292Z,1.22
2023-03-28T02:12:38.088Z,1.20
2023-03-28T02:15:09.603Z,1.06
2023-03-28T02:17:43.982Z,1.11
2023-03-28T02:20:19.436Z,1.12
2023-03-28T02:22:52.544Z,1.11
2023-03-28T02:25:20.728Z,1.13
2023-03-28T02:27:53.199Z,1.14
2023-03-28T02:30:22.740Z,1.09
2023-03-28T02:32:51.612Z,1.05
2023-03-28T02:35:25.067Z,1.07
2023-03-28T02:38:00.560Z,1.01
2023-03-28T02:40:50.185Z,1.01
2023-03-28T02:43:38.097Z,0.97
2023-03-28T02:46:13.554Z,0.98
2023-03-28T02:49:01.425Z,0.95
2023-03-28T02:51:34.745Z,0.92
2023-03-28T02:54:19.863Z,1.02
2023-03-28T02:56:56.462Z,0.97
2023-03-28T02:59:28.495Z,1.02
2023-03-28T03:01:56.433Z,0.98
2023-03-28T03:04:24.362Z,0.89
2023-03-28T03:06:52.368Z,0.80
2023-03-28T03:09:23.097Z,0.92
2023-03-28T03:11:50.778Z,0.92
2023-03-28T03:14:18.457Z,0.94
2023-03-28T03:16:46.229Z,0.86
2023-03-28T03:19:13.860Z,0.92
2023-03-28T03:21:41.488Z,0.89
2023-03-28T03:24:10.441Z,0.87
2023-03-28T03:26:39.428Z,0.89
2023-03-28T03:29:07.760Z,0.81
2023-03-28T03:31:39.814Z,0.81
2023-03-28T03:34:07.549Z,0.73
2023-03-28T03:36:35.279Z,0.79
2023-03-28T03:39:03.653Z,0.77
2023-03-28T03:41:31.313Z,0.75
2023-03-28T03:44:00.818Z,0.76
2023-03-28T03:46:28.566Z,0.76
2023-03-28T03:48:56.296Z,0.78
2023-03-28T03:51:23.977Z,0.75
2023-03-28T03:53:51.686Z,0.76
2023-03-28T03:56:19.319Z,0.66
2023-03-28T03:58:46.932Z,0.69
2023-03-28T04:01:16.037Z,0.69
2023-03-28T04:03:44.035Z,0.75
2023-03-28T04:06:11.906Z,0.70
2023-03-28T04:08:39.599Z,0.65
2023-03-28T04:11:08.361Z,0.68
2023-03-28T04:13:35.989Z,0.61
2023-03-28T04:16:03.985Z,0.61
2023-03-28T04:18:34.097Z,0.63
2023-03-28T04:21:02.664Z,0.64
2023-03-28T04:23:30.387Z,0.55
2023-03-28T04:25:58.858Z,0.60
2023-03-28T04:28:27.918Z,0.59
2023-03-28T04:30:58.666Z,0.57
2023-03-28T04:33:27.057Z,0.59
2023-03-28T04:36:00.585Z,0.48
2023-03-28T04:38:31.728Z,0.54
2023-03-28T04:41:00.888Z,0.53
2023-03-28T04:43:29.074Z,0.51
2023-03-28T04:45:58.127Z,0.44
2023-03-28T04:48:27.694Z,0.48
2023-03-28T04:50:56.903Z,0.44
2023-03-28T04:53:25.675Z,0.45
2023-03-28T04:55:54.043Z,0.47
2023-03-28T04:58:24.406Z,0.50
2023-03-28T05:00:52.638Z,0.47
2023-03-28T05:03:23.776Z,0.51
2023-03-28T05:05:53.472Z,0.47
2023-03-28T05:08:25.174Z,0.47
2023-03-28T05:10:53.300Z,0.51
2023-03-28T05:13:23.509Z,0.49
2023-03-28T05:15:51.540Z,0.51
2023-03-28T05:18:19.530Z,0.53
2023-03-28T05:20:47.473Z,0.52
2023-03-28T05:23:15.555Z,0.52
2023-03-28T05:25:45.262Z,0.55
2023-03-28T05:28:13.399Z,0.54
2023-03-28T05:30:41.691Z,0.64
2023-03-28T05:33:09.701Z,0.75
2023-03-28T05:35:38.059Z,0.82
2023-03-28T05:38:06.286Z,0.80
2023-03-28T05:40:33.971Z,0.87
2023-03-28T05:43:03.184Z,0.94
2023-03-28T05:45:30.957Z,0.84
2023-03-28T05:47:58.704Z,0.92
2023-03-28T05:50:27.399Z,0.95
2023-03-28T05:52:55.126Z,1.01
2023-03-28T05:55:22.939Z,1.10
2023-03-28T05:57:50.820Z,1.10
2023-03-28T06:00:21.212Z,1.10
2023-03-28T06:02:50.432Z,1.16
2023-03-28T06:05:19.596Z,1.23
2023-03-28T06:07:47.451Z,1.29
2023-03-28T06:10:16.592Z,1.37
2023-03-28T06:12:44.400Z,1.41
2023-03-28T06:15:12.760Z,1.45
2023-03-28T06:17:41.954Z,1.39
2023-03-28T06:20:10.794Z,1.47
2023-03-28T06:22:38.850Z,1.54
2023-03-28T06:25:07.648Z,1.71
2023-03-28T06:27:35.926Z,1.76
2023-03-28T06:30:05.021Z,1.81
2023-03-28T06:32:32.814Z,1.75
2023-03-28T06:35:01.843Z,1.77
2023-03-28T06:37:29.590Z,1.71
2023-03-28T06:39:57.281Z,1.80
2023-03-28T06:42:25.279Z,1.99
2023-03-28T06:44:53.083Z,2.14
2023-03-28T06:47:20.825Z,2.09
2023-03-28T06:49:48.581Z,2.18
2023-03-28T06:52:17.741Z,2.23
2023-03-28T06:54:47.941Z,2.22
2023-03-28T06:57:17.039Z,2.21
2023-03-28T06:59:44.793Z,2.38
2023-03-28T07:02:12.769Z,2.49
2023-03-28T07:04:40.709Z,3.23
2023-03-28T07:07:09.399Z,5.27
2023-03-28T07:09:38.709Z,6.61
2023-03-28T07:12:06.958Z,6.80
2023-03-28T07:14:35.264Z,7.00
2023-03-28T07:17:03.062Z,6.77
2023-03-28T07:19:31.093Z,7.07
2023-03-28T07:21:59.206Z,6.98
2023-03-28T07:24:27.213Z,7.13
2023-03-28T07:27:11.794Z,8.05
2023-03-28T07:29:43.517Z,9.95
2023-03-28T07:32:11.394Z,10.54
2023-03-28T07:34:39.180Z,10.15
2023-03-28T07:37:06.960Z,9.60
2023-03-28T07:39:39.757Z,8.72
2023-03-28T07:42:11.748Z,8.54
2023-03-28T07:44:42.246Z,8.30
2023-03-28T07:47:11.057Z,8.40
2023-03-28T07:49:39.601Z,8.67
2023-03-28T07:52:07.468Z,9.04
2023-03-28T07:54:37.310Z,11.30
2023-03-28T07:57:05.353Z,11.50
2023-03-28T07:59:34.841Z,9.14
2023-03-28T08:02:02.930Z,7.72
2023-03-28T08:04:32.103Z,6.76
2023-03-28T08:07:00.517Z,6.44
2023-03-28T08:09:28.338Z,6.22
2023-03-28T08:11:56.305Z,6.35
2023-03-28T08:14:24.277Z,6.33
2023-03-28T08:16:54.357Z,6.27
2023-03-28T08:19:22.012Z,6.20
2023-03-28T08:21:49.673Z,6.34
2023-03-28T08:24:25.436Z,6.41
2023-03-28T08:27:01.974Z,6.61
2023-03-28T08:29:29.779Z,6.58
2023-03-28T08:31:58.870Z,6.82
2023-03-28T08:34:27.079Z,6.57
2023-03-28T08:36:54.790Z,6.31
2023-03-28T08:39:23.366Z,6.35
2023-03-28T08:42:25.283Z,6.40
2023-03-28T08:45:08.710Z,6.85
2023-03-28T08:47:48.082Z,6.26
2023-03-28T08:50:20.041Z,5.95
2023-03-28T08:52:48.440Z,5.84
2023-03-28T08:55:28.849Z,5.92
2023-03-28T08:57:57.586Z,6.06
2023-03-28T09:00:29.799Z,6.00
2023-03-28T09:02:59.644Z,6.01
2023-03-28T09:05:43.231Z,5.73
2023-03-28T09:08:29.047Z,5.42
2023-03-28T09:11:04.180Z,5.51
2023-03-28T09:13:46.306Z,5.51
2023-03-28T09:16:42.137Z,5.68
2023-03-28T09:19:36.943Z,5.42
2023-03-28T09:22:19.907Z,5.32
2023-03-28T09:25:02.241Z,5.79
2023-03-28T09:27:34.692Z,6.45
2023-03-28T09:30:17.365Z,6.34
2023-03-28T09:32:45.661Z,6.07
2023-03-28T09:35:18.633Z,5.86
2023-03-28T09:37:49.865Z,7.68
2023-03-28T09:40:22.401Z,7.73
2023-03-28T09:43:01.160Z,7.35
2023-03-28T09:45:40.635Z,6.74
2023-03-28T09:48:14.672Z,5.92
2023-03-28T09:50:44.705Z,5.84
2023-03-28T09:53:22.145Z,7.37
2023-03-28T09:56:03.314Z,7.43
2023-03-28T09:58:49.207Z,6.83
2023-03-28T10:01:33.037Z,6.98
2023-03-28T10:04:01.184Z,7.26
2023-03-28T10:06:32.137Z,7.09
2023-03-28T10:09:11.689Z,7.27
2023-03-28T10:11:48.708Z,7.45
2023-03-28T10:14:34.173Z,7.11
2023-03-28T10:17:04.556Z,6.84
2023-03-28T10:19:35.845Z,7.02
2023-03-28T10:22:08.388Z,8.02
2023-03-28T10:24:37.744Z,9.35
2023-03-28T10:27:17.221Z,9.54
2023-03-28T10:29:46.391Z,9.48
2023-03-28T10:32:15.043Z,9.23
2023-03-28T10:34:42.724Z,8.21
2023-03-28T10:37:26.327Z,7.60
2023-03-28T10:40:01.902Z,7.56
2023-03-28T10:42:41.523Z,7.27
2023-03-28T10:45:20.615Z,7.40
2023-03-28T10:47:50.371Z,7.43
2023-03-28T10:50:23.160Z,7.82
2023-03-28T10:52:58.577Z,8.10
2023-03-28T10:55:32.554Z,8.75
2023-03-28T10:58:07.577Z,8.28
2023-03-28T11:00:42.606Z,8.06
2023-03-28T11:03:25.265Z,7.82
2023-03-28T11:06:08.819Z,7.69
2023-03-28T11:08:49.892Z,8.30
2023-03-28T11:11:36.745Z,9.26
2023-03-28T11:14:13.566Z,9.25
2023-03-28T11:16:50.430Z,8.41
2023-03-28T11:19:33.177Z,8.85
2023-03-28T11:22:13.905Z,8.24
2023-03-28T11:24:52.131Z,7.77
2023-03-28T11:27:25.558Z,7.60
2023-03-28T11:29:55.747Z,7.69
2023-03-28T11:32:27.529Z,7.63
2023-03-28T11:35:03.984Z,8.78
2023-03-28T11:37:37.595Z,9.66
2023-03-28T11:40:16.293Z,10.15
2023-03-28T11:42:48.526Z,10.35
2023-03-28T11:45:37.938Z,10.55
2023-03-28T11:48:22.611Z,12.28
2023-03-28T11:51:00.053Z,12.40
2023-03-28T11:53:32.061Z,11.16
2023-03-28T11:56:06.810Z,9.89
2023-03-28T11:58:38.528Z,11.68
2023-03-28T12:01:11.755Z,11.65
2023-03-28T12:03:52.014Z,12.37
2023-03-28T12:06:27.040Z,13.28
2023-03-28T12:09:01.387Z,13.80
2023-03-28T12:11:36.742Z,14.63
2023-03-28T12:14:15.177Z,14.50
2023-03-28T12:16:47.850Z,13.07
2023-03-28T12:19:21.767Z,11.72
2023-03-28T12:21:52.567Z,10.69
2023-03-28T12:24:26.713Z,10.31
2023-03-28T12:27:07.724Z,11.51
2023-03-28T12:29:43.192Z,10.87
2023-03-28T12:32:26.485Z,9.68
2023-03-28T12:35:05.060Z,8.90
2023-03-28T12:37:39.765Z,8.82
2023-03-28T12:40:23.632Z,10.45
2023-03-28T12:42:55.764Z,10.26
2023-03-28T12:45:29.491Z,9.57
2023-03-28T12:48:02.950Z,9.20
2023-03-28T12:50:33.861Z,9.37
2023-03-28T12:53:01.925Z,9.14
2023-03-28T12:55:49.742Z,8.30
2023-03-28T12:58:26.032Z,7.84
2023-03-28T13:01:14.747Z,8.19
2023-03-28T13:03:53.280Z,7.88
2023-03-28T13:06:29.272Z,8.13
2023-03-28T13:09:17.829Z,8.76
2023-03-28T13:11:53.843Z,9.00
2023-03-28T13:14:38.324Z,9.77
2023-03-28T13:17:21.650Z,9.88
2023-03-28T13:19:53.162Z,9.56
2023-03-28T13:22:30.325Z,9.95
2023-03-28T13:25:27.283Z,10.08
2023-03-28T13:27:57.135Z,9.44
2023-03-28T13:30:28.791Z,9.27
2023-03-28T13:33:02.265Z,9.43
2023-03-28T13:35:47.229Z,9.52
2023-03-28T13:38:26.447Z,9.69
2023-03-28T13:40:55.969Z,9.64
2023-03-28T13:43:26.446Z,9.85
2023-03-28T13:45:58.946Z,9.82
2023-03-28T13:48:34.024Z,9.84
2023-03-28T13:51:06.635Z,9.36
2023-03-28T13:53:46.499Z,9.48
2023-03-28T13:56:24.211Z,9.29
2023-03-28T13:58:53.202Z,9.12
2023-03-28T14:01:25.807Z,8.83
2023-03-28T14:03:55.814Z,8.88
2023-03-28T14:06:25.508Z,8.80
2023-03-28T14:08:55.823Z,8.90
2023-03-28T14:11:30.333Z,8.94
2023-03-28T14:14:06.658Z,8.90
2023-03-28T14:16:38.505Z,9.01
2023-03-28T14:19:07.494Z,9.03
2023-03-28T14:21:35.927Z,8.89
2023-03-28T14:24:06.870Z,8.86
2023-03-28T14:26:36.929Z,8.82
2023-03-28T14:29:08.073Z,8.78
2023-03-28T14:31:40.294Z,8.73
2023-03-28T14:34:17.858Z,8.75
2023-03-28T14:36:58.823Z,8.96
2023-03-28T14:39:28.262Z,9.02
2023-03-28T14:41:58.390Z,9.04
2023-03-28T14:44:26.533Z,8.91
2023-03-28T14:46:58.043Z,8.59
2023-03-28T14:49:27.943Z,8.42
2023-03-28T14:51:58.163Z,8.41
2023-03-28T14:54:32.640Z,8.53
2023-03-28T14:57:01.725Z,8.40
2023-03-28T14:59:40.714Z,8.33
2023-03-28T15:02:21.522Z,8.20
2023-03-28T15:04:50.309Z,8.40
2023-03-28T15:07:24.014Z,8.51
2023-03-28T15:10:07.358Z,8.35
2023-03-28T15:12:42.120Z,8.33
2023-03-28T15:15:17.443Z,8.20
2023-03-28T15:17:47.333Z,8.12
2023-03-28T15:20:18.968Z,8.09
2023-03-28T15:22:50.500Z,8.09
2023-03-28T15:25:18.346Z,8.13
2023-03-28T15:27:51.987Z,8.23
2023-03-28T15:30:21.498Z,8.10
2023-03-28T15:32:51.727Z,8.08
2023-03-28T15:35:29.652Z,8.02
2023-03-28T15:38:08.549Z,7.78
2023-03-28T15:40:42.592Z,7.74
2023-03-28T15:43:30.793Z,7.79
2023-03-28T15:46:00.476Z,7.89
2023-03-28T15:48:34.723Z,7.88
2023-03-28T15:51:05.834Z,7.99
2023-03-28T15:53:34.785Z,7.91
2023-03-28T15:56:10.429Z,7.61
2023-03-28T15:58:43.603Z,7.92
2023-03-28T16:01:36.450Z,7.90
2023-03-28T16:04:37.718Z,7.91
2023-03-28T16:07:12.832Z,7.86
2023-03-28T16:09:43.091Z,7.91
2023-03-28T16:12:14.593Z,7.86
2023-03-28T16:14:47.627Z,7.93
2023-03-28T16:17:18.443Z,7.92
2023-03-28T16:19:48.966Z,7.86
2023-03-28T16:22:16.681Z,7.95
2023-03-28T16:24:44.344Z,8.05
2023-03-28T16:27:12.013Z,7.89
2023-03-28T16:29:39.757Z,7.90
2023-03-28T16:32:11.885Z,7.94
2023-03-28T16:34:39.724Z,7.86
2023-03-28T16:37:12.319Z,7.70
2023-03-28T16:39:40.279Z,7.79
2023-03-28T16:42:08.146Z,7.86
2023-03-28T16:44:35.924Z,7.93
2023-03-28T16:47:04.318Z,8.02
2023-03-28T16:49:32.164Z,7.82
2023-03-28T16:51:59.837Z,7.69
2023-03-28T16:54:28.995Z,7.80
2023-03-28T16:56:57.130Z,7.69
2023-03-28T16:59:24.958Z,7.60
2023-03-28T17:01:53.790Z,7.55
2023-03-28T17:04:21.602Z,7.44
2023-03-28T17:06:49.513Z,7.41
2023-03-28T17:09:17.215Z,7.42
2023-03-28T17:11:46.457Z,7.32
2023-03-28T17:14:14.221Z,7.04
2023-03-28T17:16:42.028Z,7.23
2023-03-28T17:19:09.669Z,7.06
2023-03-28T17:21:37.538Z,7.05
2023-03-28T17:24:09.140Z,7.05
2023-03-28T17:26:36.858Z,7.01
2023-03-28T17:29:07.685Z,7.10
2023-03-28T17:31:35.600Z,7.04
2023-03-28T17:34:04.266Z,6.93
2023-03-28T17:36:32.722Z,6.93
2023-03-28T17:39:01.845Z,6.93
2023-03-28T17:41:29.574Z,6.88
2023-03-28T17:43:58.514Z,6.91
2023-03-28T17:46:28.016Z,6.94
2023-03-28T17:48:55.722Z,6.80
2023-03-28T17:51:23.903Z,6.82
2023-03-28T17:53:51.755Z,6.77
2023-03-28T17:56:19.623Z,6.80
2023-03-28T17:58:47.678Z,6.75
2023-03-28T18:01:18.350Z,6.71
2023-03-28T18:03:48.061Z,6.57
2023-03-28T18:06:16.525Z,6.50
2023-03-28T18:08:45.024Z,6.49
2023-03-28T18:11:15.410Z,6.46
2023-03-28T18:13:43.574Z,6.33
2023-03-28T18:16:14.150Z,6.40
2023-03-28T18:18:42.400Z,6.42
2023-03-28T18:21:12.731Z,6.24
2023-03-28T18:23:41.444Z,6.18
2023-03-28T18:26:28.863Z,6.16
2023-03-28T18:28:56.734Z,6.09
2023-03-28T18:31:28.295Z,6.12
2023-03-28T18:33:57.577Z,6.03
2023-03-28T18:36:27.313Z,5.94
2023-03-28T18:38:55.908Z,5.99
2023-03-28T18:41:23.934Z,5.99
2023-03-28T18:43:51.799Z,6.04
2023-03-28T18:46:19.651Z,5.97
2023-03-28T18:48:47.507Z,5.89
2023-03-28T18:51:15.755Z,5.94
2023-03-28T18:53:45.001Z,5.92
2023-03-28T18:56:17.136Z,5.98
2023-03-28T18:58:46.055Z,5.82
2023-03-28T19:01:14.136Z,5.79
2023-03-28T19:03:43.409Z,5.87
2023-03-28T19:06:12.924Z,5.90
2023-03-28T19:08:41.352Z,5.83
2023-03-28T19:11:15.196Z,5.78
2023-03-28T19:13:43.872Z,5.75
2023-03-28T19:16:15.969Z,5.71
2023-03-28T19:18:45.627Z,5.70
2023-03-28T19:21:14.581Z,5.67
2023-03-28T19:23:42.802Z,5.65
2023-03-28T19:26:14.032Z,5.62
2023-03-28T19:28:42.341Z,5.64
2023-03-28T19:31:12.190Z,5.45
2023-03-28T19:33:41.729Z,5.33
2023-03-28T19:36:10.500Z,5.38
2023-03-28T19:38:39.463Z,5.38
2023-03-28T19:41:11.166Z,5.38
2023-03-28T19:43:41.313Z,5.29
2023-03-28T19:46:16.864Z,5.32
2023-03-28T19:48:44.726Z,5.30
2023-03-28T19:51:12.598Z,5.33
2023-03-28T19:53:41.277Z,5.25
2023-03-28T19:56:10.460Z,5.20
2023-03-28T19:58:38.394Z,5.31
2023-03-28T20:01:07.876Z,5.10
2023-03-28T20:03:35.607Z,5.03
2023-03-28T20:06:05.351Z,5.05
2023-03-28T20:08:35.346Z,5.05
2023-03-28T20:11:03.616Z,5.03
2023-03-28T20:13:31.910Z,5.11
2023-03-28T20:16:03.451Z,5.12
2023-03-28T20:18:33.302Z,5.15
2023-03-28T20:21:03.110Z,5.18
2023-03-28T20:23:34.715Z,5.13
2023-03-28T20:26:14.226Z,5.14
2023-03-28T20:28:41.928Z,5.13
2023-03-28T20:31:13.105Z,5.04
2023-03-28T20:33:42.388Z,5.09
2023-03-28T20:36:10.220Z,5.00
2023-03-28T20:38:39.300Z,5.13
2023-03-28T20:41:11.097Z,4.95
2023-03-28T20:43:42.729Z,4.94
2023-03-28T20:46:12.690Z,4.90
2023-03-28T20:48:42.101Z,4.90
2023-03-28T20:51:15.805Z,4.96
2023-03-28T20:53:44.881Z,4.92
2023-03-28T20:56:13.758Z,4.72
2023-03-28T20:58:42.476Z,4.77
2023-03-28T21:01:12.674Z,4.81
2023-03-28T21:03:48.214Z,4.76
2023-03-28T21:06:17.067Z,4.64
2023-03-28T21:08:46.978Z,4.59
2023-03-28T21:11:15.418Z,4.62
2023-03-28T21:13:43.494Z,4.57
2023-03-28T21:16:14.228Z,4.62
2023-03-28T21:18:43.930Z,4.60
2023-03-28T21:21:13.384Z,4.49
2023-03-28T21:23:42.203Z,4.47
2023-03-28T21:26:12.354Z,4.52
2023-03-28T21:28:40.840Z,4.52
2023-03-28T21:31:11.214Z,4.61
2023-03-28T21:33:40.341Z,4.67
2023-03-28T21:36:12.078Z,4.52
2023-03-28T21:38:40.793Z,4.52
2023-03-28T21:41:08.710Z,4.52
2023-03-28T21:43:36.947Z,4.61
2023-03-28T21:46:05.043Z,4.57
2023-03-28T21:48:33.153Z,4.57
2023-03-28T21:51:01.389Z,4.57
2023-03-28T21:53:32.303Z,4.47
2023-03-28T21:56:00.175Z,4.46
2023-03-28T21:58:30.784Z,4.45
2023-03-28T22:00:58.593Z,4.47
2023-03-28T22:03:27.498Z,4.56
2023-03-28T22:05:55.991Z,4.48
2023-03-28T22:08:24.175Z,4.46
2023-03-28T22:10:55.485Z,4.50
2023-03-28T22:13:23.887Z,4.61
2023-03-28T22:15:53.057Z,4.55
2023-03-28T22:18:25.525Z,4.47
2023-03-28T22:20:54.235Z,4.45
2023-03-28T22:23:22.688Z,4.43
2023-03-28T22:25:50.777Z,4.45
2023-03-28T22:28:21.085Z,4.44
2023-03-28T22:30:48.828Z,4.43
2023-03-28T22:33:16.658Z,4.35
2023-03-28T22:35:44.396Z,4.38
2023-03-28T22:38:12.211Z,4.38
2023-03-28T22:40:39.999Z,4.32
2023-03-28T22:43:07.722Z,4.44
2023-03-28T22:45:37.163Z,4.39
2023-03-28T22:48:14.502Z,4.30
2023-03-28T22:50:44.069Z,4.36
2023-03-28T22:53:14.182Z,4.43
2023-03-28T22:55:42.334Z,4.38
2023-03-28T22:58:10.016Z,4.38
2023-03-28T23:00:39.095Z,4.32
2023-03-28T23:03:08.002Z,4.41
2023-03-28T23:05:36.222Z,4.49
2023-03-28T23:08:04.733Z,4.49
2023-03-28T23:10:32.900Z,4.51
2023-03-28T23:13:01.164Z,4.42
2023-03-28T23:15:29.258Z,4.39
2023-03-28T23:17:58.604Z,4.55
2023-03-28T23:20:26.618Z,4.55
2023-03-28T23:22:54.903Z,4.45
2023-03-28T23:25:23.077Z,4.53
2023-03-28T23:27:50.936Z,4.60
2023-03-28T23:30:19.137Z,4.62
2023-03-28T23:32:46.833Z,4.47
2023-03-28T23:35:16.028Z,4.58
2023-03-28T23:37:44.801Z,4.61
2023-03-28T23:40:15.404Z,4.42
2023-03-28T23:42:44.697Z,4.52
2023-03-28T23:45:13.860Z,4.49
2023-03-28T23:47:41.732Z,4.49
2023-03-28T23:50:11.015Z,4.39
2023-03-28T23:52:40.288Z,4.65
2023-03-28T23:58:08.073Z,4.46
